sensor_id;sensor_type;location;lat;lon;timestamp;temperature;humidity
7206;DHT22;3644;53.480;10.004;2022-11-25T00:01:29;6.10;99.90
7206;DHT22;3644;53.480;10.004;2022-11-25T00:03:56;6.10;99.90
7206;DHT22;3644;53.480;10.004;2022-11-25T00:06:31;6.00;99.90
7206;DHT22;3644;53.480;10.004;2022-11-25T00:09:03;6.00;99.90
7206;DHT22;3644;53.480;10.004;2022-11-25T00:11:29;6.10;99.90
7206;DHT22;3644;53.480;10.004;2022-11-25T00:13:56;5.90;99.90
7206;DHT22;3644;53.480;10.004;2022-11-25T00:16:23;6.00;99.90
7206;DHT22;3644;53.480;10.004;2022-11-25T00:18:52;6.00;99.90
7206;DHT22;3644;53.480;10.004;2022-11-25T00:21:20;6.00;99.90
7206;DHT22;3644;53.480;10.004;2022-11-25T00:23:56;6.00;99.90
7206;DHT22;3644;53.480;10.004;2022-11-25T00:26:23;5.90;99.90
7206;DHT22;3644;53.480;10.004;2022-11-25T00:28:49;6.00;99.90
7206;DHT22;3644;53.480;10.004;2022-11-25T00:31:20;5.80;99.90
7206;DHT22;3644;53.480;10.004;2022-11-25T00:33:46;5.80;99.90
7206;DHT22;3644;53.480;10.004;2022-11-25T00:36:23;5.70;99.90
7206;DHT22;3644;53.480;10.004;2022-11-25T00:38:56;5.70;99.90
7206;DHT22;3644;53.480;10.004;2022-11-25T00:41:23;5.70;99.90
7206;DHT22;3644;53.480;10.004;2022-11-25T00:44:13;5.70;99.90
7206;DHT22;3644;53.480;10.004;2022-11-25T00:46:57;5.70;99.90
7206;DHT22;3644;53.480;10.004;2022-11-25T00:49:23;5.70;99.90
7206;DHT22;3644;53.480;10.004;2022-11-25T00:51:48;5.70;99.90
7206;DHT22;3644;53.480;10.004;2022-11-25T00:54:14;5.80;99.90
7206;DHT22;3644;53.480;10.004;2022-11-25T00:56:39;5.60;99.90
7206;DHT22;3644;53.480;10.004;2022-11-25T00:59:06;5.60;99.90
7206;DHT22;3644;53.480;10.004;2022-11-25T01:01:31;5.70;99.90
7206;DHT22;3644;53.480;10.004;2022-11-25T01:03:57;5.70;99.90
7206;DHT22;3644;53.480;10.004;2022-11-25T01:06:22;5.70;99.90
7206;DHT22;3644;53.480;10.004;2022-11-25T01:08:48;5.60;99.90
7206;DHT22;3644;53.480;10.004;2022-11-25T01:11:17;5.60;99.90
7206;DHT22;3644;53.480;10.004;2022-11-25T01:13:43;5.70;99.90
7206;DHT22;3644;53.480;10.004;2022-11-25T01:16:11;5.70;99.90
7206;DHT22;3644;53.480;10.004;2022-11-25T01:18:37;5.70;99.90
7206;DHT22;3644;53.480;10.004;2022-11-25T01:21:13;5.60;99.90
7206;DHT22;3644;53.480;10.004;2022-11-25T01:23:40;5.70;99.90
7206;DHT22;3644;53.480;10.004;2022-11-25T01:26:09;5.70;99.90
7206;DHT22;3644;53.480;10.004;2022-11-25T01:28:35;5.70;99.90
7206;DHT22;3644;53.480;10.004;2022-11-25T01:31:02;5.70;99.90
7206;DHT22;3644;53.480;10.004;2022-11-25T01:33:29;5.70;99.90
7206;DHT22;3644;53.480;10.004;2022-11-25T01:35:59;5.80;99.90
7206;DHT22;3644;53.480;10.004;2022-11-25T01:38:25;5.80;99.90
7206;DHT22;3644;53.480;10.004;2022-11-25T01:40:51;5.80;99.90
7206;DHT22;3644;53.480;10.004;2022-11-25T01:43:16;5.90;99.90
7206;DHT22;3644;53.480;10.004;2022-11-25T01:45:42;5.80;99.90
7206;DHT22;3644;53.480;10.004;2022-11-25T01:48:15;5.90;99.90
7206;DHT22;3644;53.480;10.004;2022-11-25T01:50:43;5.90;99.90
7206;DHT22;3644;53.480;10.004;2022-11-25T01:53:11;5.90;99.90
7206;DHT22;3644;53.480;10.004;2022-11-25T01:55:40;5.90;99.90
7206;DHT22;3644;53.480;10.004;2022-11-25T01:58:14;6.00;99.90
7206;DHT22;3644;53.480;10.004;2022-11-25T02:00:41;6.00;99.90
7206;DHT22;3644;53.480;10.004;2022-11-25T02:03:08;6.00;99.90
7206;DHT22;3644;53.480;10.004;2022-11-25T02:06:26;6.00;99.90
7206;DHT22;3644;53.480;10.004;2022-11-25T02:09:03;6.10;99.90
7206;DHT22;3644;53.480;10.004;2022-11-25T02:11:30;6.10;99.90
7206;DHT22;3644;53.480;10.004;2022-11-25T02:13:57;6.10;99.90
7206;DHT22;3644;53.480;10.004;2022-11-25T02:16:24;6.00;99.90
7206;DHT22;3644;53.480;10.004;2022-11-25T02:18:49;6.10;99.90
7206;DHT22;3644;53.480;10.004;2022-11-25T02:21:25;6.00;99.90
7206;DHT22;3644;53.480;10.004;2022-11-25T02:24:12;6.00;99.90
7206;DHT22;3644;53.480;10.004;2022-11-25T02:26:41;6.00;99.90
7206;DHT22;3644;53.480;10.004;2022-11-25T02:29:07;6.10;99.90
7206;DHT22;3644;53.480;10.004;2022-11-25T02:31:32;6.10;99.90
7206;DHT22;3644;53.480;10.004;2022-11-25T02:33:58;6.00;99.90
7206;DHT22;3644;53.480;10.004;2022-11-25T02:36:23;6.00;99.90
7206;DHT22;3644;53.480;10.004;2022-11-25T02:38:55;6.10;99.90
7206;DHT22;3644;53.480;10.004;2022-11-25T02:41:38;6.10;99.90
7206;DHT22;3644;53.480;10.004;2022-11-25T02:44:06;6.10;99.90
7206;DHT22;3644;53.480;10.004;2022-11-25T02:46:31;6.00;99.90
7206;DHT22;3644;53.480;10.004;2022-11-25T02:48:58;6.00;99.90
7206;DHT22;3644;53.480;10.004;2022-11-25T02:51:28;6.10;99.90
7206;DHT22;3644;53.480;10.004;2022-11-25T02:53:55;6.00;99.90
7206;DHT22;3644;53.480;10.004;2022-11-25T02:56:26;6.00;99.90
7206;DHT22;3644;53.480;10.004;2022-11-25T02:58:52;6.00;99.90
7206;DHT22;3644;53.480;10.004;2022-11-25T03:01:17;6.00;99.90
7206;DHT22;3644;53.480;10.004;2022-11-25T03:03:43;5.90;99.90
7206;DHT22;3644;53.480;10.004;2022-11-25T03:06:09;6.00;99.90
7206;DHT22;3644;53.480;10.004;2022-11-25T03:08:35;6.00;99.90
7206;DHT22;3644;53.480;10.004;2022-11-25T03:11:01;5.90;99.90
7206;DHT22;3644;53.480;10.004;2022-11-25T03:13:27;6.00;99.90
7206;DHT22;3644;53.480;10.004;2022-11-25T03:15:52;6.00;99.90
7206;DHT22;3644;53.480;10.004;2022-11-25T03:18:18;6.10;99.90
7206;DHT22;3644;53.480;10.004;2022-11-25T03:20:44;6.00;99.90
7206;DHT22;3644;53.480;10.004;2022-11-25T03:23:09;6.10;99.90
7206;DHT22;3644;53.480;10.004;2022-11-25T03:25:35;6.10;99.90
7206;DHT22;3644;53.480;10.004;2022-11-25T03:28:02;6.00;99.90
7206;DHT22;3644;53.480;10.004;2022-11-25T03:30:28;6.00;99.90
7206;DHT22;3644;53.480;10.004;2022-11-25T03:32:54;6.00;99.90
7206;DHT22;3644;53.480;10.004;2022-11-25T03:35:20;6.00;99.90
7206;DHT22;3644;53.480;10.004;2022-11-25T03:37:46;6.10;99.90
7206;DHT22;3644;53.480;10.004;2022-11-25T03:40:13;6.20;99.90
7206;DHT22;3644;53.480;10.004;2022-11-25T03:42:40;6.00;99.90
7206;DHT22;3644;53.480;10.004;2022-11-25T03:45:06;6.00;99.90
7206;DHT22;3644;53.480;10.004;2022-11-25T03:47:32;5.90;99.90
7206;DHT22;3644;53.480;10.004;2022-11-25T03:49:58;5.90;99.90
7206;DHT22;3644;53.480;10.004;2022-11-25T03:52:24;6.00;99.90
7206;DHT22;3644;53.480;10.004;2022-11-25T03:54:49;6.00;99.90
7206;DHT22;3644;53.480;10.004;2022-11-25T03:57:15;6.00;99.90
7206;DHT22;3644;53.480;10.004;2022-11-25T03:59:40;6.10;99.90
7206;DHT22;3644;53.480;10.004;2022-11-25T04:02:06;6.10;99.90
7206;DHT22;3644;53.480;10.004;2022-11-25T04:04:31;6.10;99.90
7206;DHT22;3644;53.480;10.004;2022-11-25T04:06:57;6.00;99.90
7206;DHT22;3644;53.480;10.004;2022-11-25T04:09:22;6.00;99.90
7206;DHT22;3644;53.480;10.004;2022-11-25T04:11:50;5.90;99.90
7206;DHT22;3644;53.480;10.004;2022-11-25T04:14:34;5.90;99.90
7206;DHT22;3644;53.480;10.004;2022-11-25T04:17:00;5.90;99.90
7206;DHT22;3644;53.480;10.004;2022-11-25T04:19:25;6.00;99.90
7206;DHT22;3644;53.480;10.004;2022-11-25T04:21:51;5.90;99.90
7206;DHT22;3644;53.480;10.004;2022-11-25T04:24:16;5.90;99.90
7206;DHT22;3644;53.480;10.004;2022-11-25T04:26:41;5.90;99.90
7206;DHT22;3644;53.480;10.004;2022-11-25T04:29:07;5.90;99.90
7206;DHT22;3644;53.480;10.004;2022-11-25T04:31:33;5.90;99.90
7206;DHT22;3644;53.480;10.004;2022-11-25T04:33:58;6.00;99.90
7206;DHT22;3644;53.480;10.004;2022-11-25T04:36:24;5.90;99.90
7206;DHT22;3644;53.480;10.004;2022-11-25T04:38:49;5.80;99.90
7206;DHT22;3644;53.480;10.004;2022-11-25T04:41:15;5.80;99.90
7206;DHT22;3644;53.480;10.004;2022-11-25T04:43:41;5.80;99.90
7206;DHT22;3644;53.480;10.004;2022-11-25T04:46:06;6.00;99.90
7206;DHT22;3644;53.480;10.004;2022-11-25T04:48:32;5.80;99.90
7206;DHT22;3644;53.480;10.004;2022-11-25T04:50:57;5.70;99.90
7206;DHT22;3644;53.480;10.004;2022-11-25T04:53:23;5.80;99.90
7206;DHT22;3644;53.480;10.004;2022-11-25T04:55:48;5.70;99.90
7206;DHT22;3644;53.480;10.004;2022-11-25T04:58:14;5.90;99.90
7206;DHT22;3644;53.480;10.004;2022-11-25T05:01:00;5.90;99.90
7206;DHT22;3644;53.480;10.004;2022-11-25T05:03:26;5.80;99.90
7206;DHT22;3644;53.480;10.004;2022-11-25T05:05:51;5.70;99.90
7206;DHT22;3644;53.480;10.004;2022-11-25T05:08:17;5.80;99.90
7206;DHT22;3644;53.480;10.004;2022-11-25T05:10:42;5.70;99.90
7206;DHT22;3644;53.480;10.004;2022-11-25T05:13:07;5.70;99.90
7206;DHT22;3644;53.480;10.004;2022-11-25T05:15:33;5.70;99.90
7206;DHT22;3644;53.480;10.004;2022-11-25T05:17:58;5.70;99.90
7206;DHT22;3644;53.480;10.004;2022-11-25T05:20:24;5.70;99.90
7206;DHT22;3644;53.480;10.004;2022-11-25T05:22:49;5.60;99.90
7206;DHT22;3644;53.480;10.004;2022-11-25T05:25:15;5.60;99.90
7206;DHT22;3644;53.480;10.004;2022-11-25T05:27:40;5.60;99.90
7206;DHT22;3644;53.480;10.004;2022-11-25T05:30:07;5.60;99.90
7206;DHT22;3644;53.480;10.004;2022-11-25T05:32:32;5.70;99.90
7206;DHT22;3644;53.480;10.004;2022-11-25T05:34:58;5.80;99.90
7206;DHT22;3644;53.480;10.004;2022-11-25T05:37:23;5.70;99.90
7206;DHT22;3644;53.480;10.004;2022-11-25T05:39:49;5.60;99.90
7206;DHT22;3644;53.480;10.004;2022-11-25T05:42:14;5.70;99.90
7206;DHT22;3644;53.480;10.004;2022-11-25T05:44:40;5.70;99.90
7206;DHT22;3644;53.480;10.004;2022-11-25T05:47:05;5.90;99.90
7206;DHT22;3644;53.480;10.004;2022-11-25T05:49:31;6.00;99.90
7206;DHT22;3644;53.480;10.004;2022-11-25T05:51:56;6.00;99.90
7206;DHT22;3644;53.480;10.004;2022-11-25T05:54:22;5.90;99.90
7206;DHT22;3644;53.480;10.004;2022-11-25T05:56:47;5.90;99.90
7206;DHT22;3644;53.480;10.004;2022-11-25T05:59:13;5.90;99.90
7206;DHT22;3644;53.480;10.004;2022-11-25T06:01:38;6.00;99.90
7206;DHT22;3644;53.480;10.004;2022-11-25T06:04:04;6.00;99.90
7206;DHT22;3644;53.480;10.004;2022-11-25T06:06:30;6.00;99.90
7206;DHT22;3644;53.480;10.004;2022-11-25T06:08:56;6.10;99.90
7206;DHT22;3644;53.480;10.004;2022-11-25T06:11:22;6.10;99.90
7206;DHT22;3644;53.480;10.004;2022-11-25T06:13:47;6.10;99.90
7206;DHT22;3644;53.480;10.004;2022-11-25T06:16:19;6.10;99.90
7206;DHT22;3644;53.480;10.004;2022-11-25T06:18:45;6.00;99.90
7206;DHT22;3644;53.480;10.004;2022-11-25T06:21:11;6.00;99.90
7206;DHT22;3644;53.480;10.004;2022-11-25T06:23:37;6.10;99.90
7206;DHT22;3644;53.480;10.004;2022-11-25T06:26:04;6.30;99.90
7206;DHT22;3644;53.480;10.004;2022-11-25T06:28:30;6.30;99.90
7206;DHT22;3644;53.480;10.004;2022-11-25T06:30:56;6.20;99.90
7206;DHT22;3644;53.480;10.004;2022-11-25T06:33:21;6.20;99.90
7206;DHT22;3644;53.480;10.004;2022-11-25T06:35:47;6.10;99.90
7206;DHT22;3644;53.480;10.004;2022-11-25T06:38:12;6.20;99.90
7206;DHT22;3644;53.480;10.004;2022-11-25T06:40:38;6.20;99.90
7206;DHT22;3644;53.480;10.004;2022-11-25T06:43:03;6.10;99.90
7206;DHT22;3644;53.480;10.004;2022-11-25T06:45:29;6.00;99.90
7206;DHT22;3644;53.480;10.004;2022-11-25T06:47:54;6.00;99.90
7206;DHT22;3644;53.480;10.004;2022-11-25T06:50:21;5.90;99.90
7206;DHT22;3644;53.480;10.004;2022-11-25T06:52:46;5.90;99.90
7206;DHT22;3644;53.480;10.004;2022-11-25T06:55:12;5.90;99.90
7206;DHT22;3644;53.480;10.004;2022-11-25T06:57:37;5.90;99.90
7206;DHT22;3644;53.480;10.004;2022-11-25T07:00:03;5.90;99.90
7206;DHT22;3644;53.480;10.004;2022-11-25T07:02:29;6.00;99.90
7206;DHT22;3644;53.480;10.004;2022-11-25T07:04:54;6.00;99.90
7206;DHT22;3644;53.480;10.004;2022-11-25T07:07:20;6.00;99.90
7206;DHT22;3644;53.480;10.004;2022-11-25T07:09:45;6.00;99.90
7206;DHT22;3644;53.480;10.004;2022-11-25T07:12:12;6.10;99.90
7206;DHT22;3644;53.480;10.004;2022-11-25T07:14:37;6.20;99.90
7206;DHT22;3644;53.480;10.004;2022-11-25T07:17:03;6.10;99.90
7206;DHT22;3644;53.480;10.004;2022-11-25T07:19:28;6.10;99.90
7206;DHT22;3644;53.480;10.004;2022-11-25T07:21:57;6.20;99.90
7206;DHT22;3644;53.480;10.004;2022-11-25T07:24:23;6.00;99.90
7206;DHT22;3644;53.480;10.004;2022-11-25T07:26:48;6.20;99.90
7206;DHT22;3644;53.480;10.004;2022-11-25T07:29:15;6.30;99.90
7206;DHT22;3644;53.480;10.004;2022-11-25T07:31:42;6.20;99.90
7206;DHT22;3644;53.480;10.004;2022-11-25T07:34:14;6.30;99.90
7206;DHT22;3644;53.480;10.004;2022-11-25T07:36:41;6.20;99.90
7206;DHT22;3644;53.480;10.004;2022-11-25T07:39:13;6.30;99.90
7206;DHT22;3644;53.480;10.004;2022-11-25T07:41:39;6.30;99.90
7206;DHT22;3644;53.480;10.004;2022-11-25T07:44:06;6.20;99.90
7206;DHT22;3644;53.480;10.004;2022-11-25T07:46:35;6.20;99.90
7206;DHT22;3644;53.480;10.004;2022-11-25T07:49:04;6.30;99.90
7206;DHT22;3644;53.480;10.004;2022-11-25T07:51:36;6.20;99.90
7206;DHT22;3644;53.480;10.004;2022-11-25T07:54:04;6.30;99.90
7206;DHT22;3644;53.480;10.004;2022-11-25T07:56:33;6.40;99.90
7206;DHT22;3644;53.480;10.004;2022-11-25T07:58:59;6.50;99.90
7206;DHT22;3644;53.480;10.004;2022-11-25T08:01:25;6.60;99.90
7206;DHT22;3644;53.480;10.004;2022-11-25T08:03:51;6.70;99.90
7206;DHT22;3644;53.480;10.004;2022-11-25T08:06:22;6.60;99.90
7206;DHT22;3644;53.480;10.004;2022-11-25T08:08:48;6.60;99.90
7206;DHT22;3644;53.480;10.004;2022-11-25T08:11:23;6.60;99.90
7206;DHT22;3644;53.480;10.004;2022-11-25T08:13:49;6.70;99.90
7206;DHT22;3644;53.480;10.004;2022-11-25T08:16:17;6.80;99.90
7206;DHT22;3644;53.480;10.004;2022-11-25T08:18:43;6.80;99.90
7206;DHT22;3644;53.480;10.004;2022-11-25T08:21:10;6.80;99.90
7206;DHT22;3644;53.480;10.004;2022-11-25T08:23:38;6.80;99.90
7206;DHT22;3644;53.480;10.004;2022-11-25T08:26:11;6.90;99.90
7206;DHT22;3644;53.480;10.004;2022-11-25T08:28:38;6.90;99.90
7206;DHT22;3644;53.480;10.004;2022-11-25T08:31:06;6.90;99.90
7206;DHT22;3644;53.480;10.004;2022-11-25T08:33:32;7.00;99.90
7206;DHT22;3644;53.480;10.004;2022-11-25T08:35:57;7.00;99.90
7206;DHT22;3644;53.480;10.004;2022-11-25T08:38:23;7.00;99.90
7206;DHT22;3644;53.480;10.004;2022-11-25T08:40:49;7.10;99.90
7206;DHT22;3644;53.480;10.004;2022-11-25T08:43:15;7.20;99.90
7206;DHT22;3644;53.480;10.004;2022-11-25T08:45:40;7.20;99.90
7206;DHT22;3644;53.480;10.004;2022-11-25T08:48:06;7.30;99.90
7206;DHT22;3644;53.480;10.004;2022-11-25T08:50:32;7.40;99.90
7206;DHT22;3644;53.480;10.004;2022-11-25T08:52:58;7.40;99.90
7206;DHT22;3644;53.480;10.004;2022-11-25T08:55:25;7.40;99.90
7206;DHT22;3644;53.480;10.004;2022-11-25T08:57:52;7.40;99.90
7206;DHT22;3644;53.480;10.004;2022-11-25T09:00:18;7.50;99.90
7206;DHT22;3644;53.480;10.004;2022-11-25T09:02:44;7.50;99.90
7206;DHT22;3644;53.480;10.004;2022-11-25T09:05:15;7.40;99.90
7206;DHT22;3644;53.480;10.004;2022-11-25T09:07:41;7.50;99.90
7206;DHT22;3644;53.480;10.004;2022-11-25T09:10:11;7.50;99.90
7206;DHT22;3644;53.480;10.004;2022-11-25T09:12:37;7.60;99.90
7206;DHT22;3644;53.480;10.004;2022-11-25T09:15:03;7.70;99.90
7206;DHT22;3644;53.480;10.004;2022-11-25T09:17:29;7.70;99.90
7206;DHT22;3644;53.480;10.004;2022-11-25T09:19:54;7.60;99.90
7206;DHT22;3644;53.480;10.004;2022-11-25T09:22:20;7.60;99.90
7206;DHT22;3644;53.480;10.004;2022-11-25T09:24:45;7.60;99.90
7206;DHT22;3644;53.480;10.004;2022-11-25T09:27:11;7.70;99.90
7206;DHT22;3644;53.480;10.004;2022-11-25T09:29:37;7.70;99.90
7206;DHT22;3644;53.480;10.004;2022-11-25T09:32:02;7.70;99.90
7206;DHT22;3644;53.480;10.004;2022-11-25T09:34:28;7.60;99.90
7206;DHT22;3644;53.480;10.004;2022-11-25T09:36:54;7.70;99.90
7206;DHT22;3644;53.480;10.004;2022-11-25T09:39:19;7.60;99.90
7206;DHT22;3644;53.480;10.004;2022-11-25T09:45:12;7.60;99.90
7206;DHT22;3644;53.480;10.004;2022-11-25T09:53:55;7.80;99.90
7206;DHT22;3644;53.480;10.004;2022-11-25T09:56:34;7.80;99.90
7206;DHT22;3644;53.480;10.004;2022-11-25T10:01:59;7.80;99.90
7206;DHT22;3644;53.480;10.004;2022-11-25T10:04:29;7.80;99.90
7206;DHT22;3644;53.480;10.004;2022-11-25T10:06:58;7.80;99.90
7206;DHT22;3644;53.480;10.004;2022-11-25T10:09:29;7.90;99.90
7206;DHT22;3644;53.480;10.004;2022-11-25T10:11:57;8.00;99.90
7206;DHT22;3644;53.480;10.004;2022-11-25T10:14:41;8.00;99.90
7206;DHT22;3644;53.480;10.004;2022-11-25T10:17:11;8.00;99.90
7206;DHT22;3644;53.480;10.004;2022-11-25T10:20:00;8.00;99.90
7206;DHT22;3644;53.480;10.004;2022-11-25T10:22:36;8.20;99.90
7206;DHT22;3644;53.480;10.004;2022-11-25T10:25:14;8.50;99.90
7206;DHT22;3644;53.480;10.004;2022-11-25T10:27:48;8.60;99.90
7206;DHT22;3644;53.480;10.004;2022-11-25T10:30:20;8.50;99.90
7206;DHT22;3644;53.480;10.004;2022-11-25T10:32:53;8.50;99.90
7206;DHT22;3644;53.480;10.004;2022-11-25T10:35:32;8.50;99.90
7206;DHT22;3644;53.480;10.004;2022-11-25T10:38:01;8.50;99.90
7206;DHT22;3644;53.480;10.004;2022-11-25T10:40:30;8.40;99.90
7206;DHT22;3644;53.480;10.004;2022-11-25T10:42:55;8.40;99.90
7206;DHT22;3644;53.480;10.004;2022-11-25T10:45:30;8.40;99.90
7206;DHT22;3644;53.480;10.004;2022-11-25T10:51:28;8.50;99.90
7206;DHT22;3644;53.480;10.004;2022-11-25T10:56:58;8.50;99.90
7206;DHT22;3644;53.480;10.004;2022-11-25T10:59:30;8.60;99.90
7206;DHT22;3644;53.480;10.004;2022-11-25T11:02:18;8.60;99.90
7206;DHT22;3644;53.480;10.004;2022-11-25T11:04:57;8.60;99.90
7206;DHT22;3644;53.480;10.004;2022-11-25T11:07:25;8.70;99.90
7206;DHT22;3644;53.480;10.004;2022-11-25T11:09:51;8.80;99.90
7206;DHT22;3644;53.480;10.004;2022-11-25T11:12:26;8.70;99.90
7206;DHT22;3644;53.480;10.004;2022-11-25T11:14:53;8.70;99.90
7206;DHT22;3644;53.480;10.004;2022-11-25T11:17:37;8.80;99.90
7206;DHT22;3644;53.480;10.004;2022-11-25T11:22:48;8.80;99.90
7206;DHT22;3644;53.480;10.004;2022-11-25T11:27:46;8.80;99.90
7206;DHT22;3644;53.480;10.004;2022-11-25T11:30:17;8.80;99.90
7206;DHT22;3644;53.480;10.004;2022-11-25T11:39:34;9.00;99.90
7206;DHT22;3644;53.480;10.004;2022-11-25T11:42:38;9.00;99.90
7206;DHT22;3644;53.480;10.004;2022-11-25T11:48:11;9.10;99.90
7206;DHT22;3644;53.480;10.004;2022-11-25T11:50:54;9.20;99.90
7206;DHT22;3644;53.480;10.004;2022-11-25T11:56:20;9.30;99.90
7206;DHT22;3644;53.480;10.004;2022-11-25T12:04:07;9.40;99.90
7206;DHT22;3644;53.480;10.004;2022-11-25T12:06:37;9.50;99.90
7206;DHT22;3644;53.480;10.004;2022-11-25T12:09:09;9.50;99.90
7206;DHT22;3644;53.480;10.004;2022-11-25T12:11:43;9.50;99.90
7206;DHT22;3644;53.480;10.004;2022-11-25T12:14:42;9.40;99.90
7206;DHT22;3644;53.480;10.004;2022-11-25T12:19:59;9.50;99.90
7206;DHT22;3644;53.480;10.004;2022-11-25T12:22:37;9.40;99.90
7206;DHT22;3644;53.480;10.004;2022-11-25T12:25:12;9.50;99.90
7206;DHT22;3644;53.480;10.004;2022-11-25T12:30:14;9.50;99.90
7206;DHT22;3644;53.480;10.004;2022-11-25T12:33:05;9.60;99.90
7206;DHT22;3644;53.480;10.004;2022-11-25T12:41:24;9.70;99.90
7206;DHT22;3644;53.480;10.004;2022-11-25T12:43:57;9.80;99.90
7206;DHT22;3644;53.480;10.004;2022-11-25T12:46:32;9.90;99.90
7206;DHT22;3644;53.480;10.004;2022-11-25T12:48:59;9.90;99.90
7206;DHT22;3644;53.480;10.004;2022-11-25T12:51:50;9.90;99.90
7206;DHT22;3644;53.480;10.004;2022-11-25T13:00:22;9.90;99.90
7206;DHT22;3644;53.480;10.004;2022-11-25T13:08:59;10.00;99.90
7206;DHT22;3644;53.480;10.004;2022-11-25T13:14:23;10.00;99.90
7206;DHT22;3644;53.480;10.004;2022-11-25T13:16:51;10.10;99.90
7206;DHT22;3644;53.480;10.004;2022-11-25T13:19:18;10.10;99.90
7206;DHT22;3644;53.480;10.004;2022-11-25T13:21:57;10.10;99.90
7206;DHT22;3644;53.480;10.004;2022-11-25T13:24:38;10.20;99.90
7206;DHT22;3644;53.480;10.004;2022-11-25T13:27:04;10.20;99.90
7206;DHT22;3644;53.480;10.004;2022-11-25T13:32:01;10.20;99.90
7206;DHT22;3644;53.480;10.004;2022-11-25T13:34:36;10.30;99.90
7206;DHT22;3644;53.480;10.004;2022-11-25T13:42:44;10.40;99.90
7206;DHT22;3644;53.480;10.004;2022-11-25T13:45:35;10.40;99.90
7206;DHT22;3644;53.480;10.004;2022-11-25T13:48:20;10.40;99.90
7206;DHT22;3644;53.480;10.004;2022-11-25T13:50:49;10.40;99.90
7206;DHT22;3644;53.480;10.004;2022-11-25T13:53:33;10.40;99.90
7206;DHT22;3644;53.480;10.004;2022-11-25T13:56:28;10.40;99.90
7206;DHT22;3644;53.480;10.004;2022-11-25T14:01:37;10.60;99.90
7206;DHT22;3644;53.480;10.004;2022-11-25T14:04:07;10.60;99.90
7206;DHT22;3644;53.480;10.004;2022-11-25T14:07:13;10.60;99.90
7206;DHT22;3644;53.480;10.004;2022-11-25T14:15:39;10.70;99.90
7206;DHT22;3644;53.480;10.004;2022-11-25T14:18:54;10.70;99.90
7206;DHT22;3644;53.480;10.004;2022-11-25T14:21:11;10.70;99.90
7206;DHT22;3644;53.480;10.004;2022-11-25T14:26:21;10.90;99.90
7206;DHT22;3644;53.480;10.004;2022-11-25T14:29:02;10.90;99.90
7206;DHT22;3644;53.480;10.004;2022-11-25T14:31:36;10.90;99.90
7206;DHT22;3644;53.480;10.004;2022-11-25T14:34:11;10.90;99.90
7206;DHT22;3644;53.480;10.004;2022-11-25T14:36:49;10.90;99.90
7206;DHT22;3644;53.480;10.004;2022-11-25T14:39:30;10.90;99.90
7206;DHT22;3644;53.480;10.004;2022-11-25T14:42:05;10.90;99.90
7206;DHT22;3644;53.480;10.004;2022-11-25T14:44:54;10.90;99.90
7206;DHT22;3644;53.480;10.004;2022-11-25T14:47:22;10.90;99.90
7206;DHT22;3644;53.480;10.004;2022-11-25T14:49:51;10.90;99.90
7206;DHT22;3644;53.480;10.004;2022-11-25T14:52:26;10.80;99.90
7206;DHT22;3644;53.480;10.004;2022-11-25T14:54:53;10.80;99.90
7206;DHT22;3644;53.480;10.004;2022-11-25T14:57:24;10.80;99.90
7206;DHT22;3644;53.480;10.004;2022-11-25T14:59:52;10.80;99.90
7206;DHT22;3644;53.480;10.004;2022-11-25T15:02:25;10.80;99.90
7206;DHT22;3644;53.480;10.004;2022-11-25T15:04:51;10.70;99.90
7206;DHT22;3644;53.480;10.004;2022-11-25T15:07:21;10.70;99.90
7206;DHT22;3644;53.480;10.004;2022-11-25T15:09:47;10.80;99.90
7206;DHT22;3644;53.480;10.004;2022-11-25T15:12:16;10.70;99.90
7206;DHT22;3644;53.480;10.004;2022-11-25T15:14:51;10.70;99.90
7206;DHT22;3644;53.480;10.004;2022-11-25T15:17:30;10.80;99.90
7206;DHT22;3644;53.480;10.004;2022-11-25T15:19:58;10.80;99.90
7206;DHT22;3644;53.480;10.004;2022-11-25T15:22:26;10.90;99.90
7206;DHT22;3644;53.480;10.004;2022-11-25T15:24:54;11.00;99.90
7206;DHT22;3644;53.480;10.004;2022-11-25T15:27:23;11.00;99.90
7206;DHT22;3644;53.480;10.004;2022-11-25T15:29:53;11.00;99.90
7206;DHT22;3644;53.480;10.004;2022-11-25T15:32:25;11.00;99.90
7206;DHT22;3644;53.480;10.004;2022-11-25T15:34:53;11.00;99.90
7206;DHT22;3644;53.480;10.004;2022-11-25T15:37:19;11.00;99.90
7206;DHT22;3644;53.480;10.004;2022-11-25T15:39:45;11.00;99.90
7206;DHT22;3644;53.480;10.004;2022-11-25T15:42:18;11.00;99.90
7206;DHT22;3644;53.480;10.004;2022-11-25T15:44:58;11.00;99.90
7206;DHT22;3644;53.480;10.004;2022-11-25T15:47:26;11.00;99.90
7206;DHT22;3644;53.480;10.004;2022-11-25T15:49:59;11.00;99.90
7206;DHT22;3644;53.480;10.004;2022-11-25T15:52:27;10.90;99.90
7206;DHT22;3644;53.480;10.004;2022-11-25T15:54:58;10.90;99.90
7206;DHT22;3644;53.480;10.004;2022-11-25T15:57:29;10.90;99.90
7206;DHT22;3644;53.480;10.004;2022-11-25T16:07:40;11.00;99.90
7206;DHT22;3644;53.480;10.004;2022-11-25T16:10:38;10.90;99.90
7206;DHT22;3644;53.480;10.004;2022-11-25T16:15:49;11.00;99.90
7206;DHT22;3644;53.480;10.004;2022-11-25T16:18:17;11.00;99.90
7206;DHT22;3644;53.480;10.004;2022-11-25T16:20:51;11.00;99.90
7206;DHT22;3644;53.480;10.004;2022-11-25T16:23:19;10.90;99.90
7206;DHT22;3644;53.480;10.004;2022-11-25T16:25:49;11.00;99.90
7206;DHT22;3644;53.480;10.004;2022-11-25T16:28:20;10.90;99.90
7206;DHT22;3644;53.480;10.004;2022-11-25T16:30:46;10.90;99.90
7206;DHT22;3644;53.480;10.004;2022-11-25T16:33:12;10.90;99.90
7206;DHT22;3644;53.480;10.004;2022-11-25T16:35:37;10.90;99.90
7206;DHT22;3644;53.480;10.004;2022-11-25T16:38:03;10.90;99.90
7206;DHT22;3644;53.480;10.004;2022-11-25T16:40:28;10.90;99.90
7206;DHT22;3644;53.480;10.004;2022-11-25T16:42:54;10.90;99.90
7206;DHT22;3644;53.480;10.004;2022-11-25T16:45:26;10.90;99.90
7206;DHT22;3644;53.480;10.004;2022-11-25T16:47:52;11.00;99.90
7206;DHT22;3644;53.480;10.004;2022-11-25T16:50:18;11.00;99.90
7206;DHT22;3644;53.480;10.004;2022-11-25T16:52:44;10.90;99.90
7206;DHT22;3644;53.480;10.004;2022-11-25T16:55:10;10.80;99.90
7206;DHT22;3644;53.480;10.004;2022-11-25T16:57:36;10.90;99.90
7206;DHT22;3644;53.480;10.004;2022-11-25T17:00:06;11.00;99.90
7206;DHT22;3644;53.480;10.004;2022-11-25T17:02:33;11.00;99.90
7206;DHT22;3644;53.480;10.004;2022-11-25T17:05:19;10.90;99.90
7206;DHT22;3644;53.480;10.004;2022-11-25T17:07:46;11.00;99.90
7206;DHT22;3644;53.480;10.004;2022-11-25T17:10:12;11.00;99.90
7206;DHT22;3644;53.480;10.004;2022-11-25T17:12:40;10.90;99.90
7206;DHT22;3644;53.480;10.004;2022-11-25T17:15:12;10.90;99.90
7206;DHT22;3644;53.480;10.004;2022-11-25T17:17:38;10.90;99.90
7206;DHT22;3644;53.480;10.004;2022-11-25T17:20:08;10.90;99.90
7206;DHT22;3644;53.480;10.004;2022-11-25T17:22:34;11.00;99.90
7206;DHT22;3644;53.480;10.004;2022-11-25T17:25:00;11.00;99.90
7206;DHT22;3644;53.480;10.004;2022-11-25T17:27:30;11.00;99.90
7206;DHT22;3644;53.480;10.004;2022-11-25T17:29:59;10.90;99.90
7206;DHT22;3644;53.480;10.004;2022-11-25T17:32:25;10.90;99.90
7206;DHT22;3644;53.480;10.004;2022-11-25T17:34:52;10.90;99.90
7206;DHT22;3644;53.480;10.004;2022-11-25T17:37:22;10.90;99.90
7206;DHT22;3644;53.480;10.004;2022-11-25T17:39:49;10.90;99.90
7206;DHT22;3644;53.480;10.004;2022-11-25T17:42:16;10.90;99.90
7206;DHT22;3644;53.480;10.004;2022-11-25T17:44:43;10.90;99.90
7206;DHT22;3644;53.480;10.004;2022-11-25T17:47:14;10.90;99.90
7206;DHT22;3644;53.480;10.004;2022-11-25T17:49:40;10.80;99.90